createdAt,value
2022-12-27T00:00:14.302Z,29.75
2022-12-27T00:02:46.144Z,30.13
2022-12-27T00:05:15.732Z,25.63
2022-12-27T00:07:44.168Z,23.42
2022-12-27T00:10:15.770Z,36.60
2022-12-27T00:12:43.700Z,30.13
2022-12-27T00:15:11.746Z,27.20
2022-12-27T00:17:42.238Z,24.75
2022-12-27T00:20:11.663Z,26.67
2022-12-27T00:22:42.028Z,22.95
2022-12-27T00:25:11.474Z,22.70
2022-12-27T00:27:40.188Z,26.65
2022-12-27T00:30:08.973Z,22.17
2022-12-27T00:32:37.095Z,24.75
2022-12-27T00:35:05.461Z,22.35
2022-12-27T00:37:34.257Z,24.67
2022-12-27T00:40:02.443Z,23.52
2022-12-27T00:42:30.833Z,25.73
2022-12-27T00:44:59.548Z,21.77
2022-12-27T00:47:30.518Z,21.75
2022-12-27T00:49:58.466Z,25.33
2022-12-27T00:52:27.222Z,23.15
2022-12-27T00:54:58.052Z,22.80
2022-12-27T00:57:27.225Z,22.45
2022-12-27T00:59:55.467Z,26.02
2022-12-27T01:02:26.229Z,26.73
2022-12-27T01:05:00.533Z,23.77
2022-12-27T01:07:28.826Z,20.17
2022-12-27T01:09:57.986Z,20.20
2022-12-27T01:12:26.360Z,23.25
2022-12-27T01:14:54.477Z,23.80
2022-12-27T01:17:26.460Z,16.23
2022-12-27T01:19:54.409Z,23.35
2022-12-27T01:22:23.457Z,16.17
2022-12-27T01:24:51.356Z,17.45
2022-12-27T01:27:20.559Z,16.30
2022-12-27T01:29:49.516Z,17.98
2022-12-27T01:32:17.686Z,18.45
2022-12-27T01:34:47.451Z,18.80
2022-12-27T01:37:16.167Z,21.55
2022-12-27T01:39:44.246Z,19.02
2022-12-27T01:42:35.642Z,20.42
2022-12-27T01:45:22.133Z,22.73
2022-12-27T01:48:21.931Z,20.63
2022-12-27T01:50:56.221Z,26.23
2022-12-27T01:53:42.059Z,27.88
2022-12-27T01:56:28.122Z,23.85
2022-12-27T01:59:07.219Z,27.77
2022-12-27T02:01:38.275Z,32.15
2022-12-27T02:04:09.480Z,34.67
2022-12-27T02:06:39.010Z,32.88
2022-12-27T02:09:18.918Z,36.67
2022-12-27T02:11:52.477Z,45.47
2022-12-27T02:14:29.967Z,43.78
2022-12-27T02:16:58.752Z,45.67
2022-12-27T02:20:01.942Z,49.50
2022-12-27T02:23:05.973Z,51.35
2022-12-27T02:25:50.915Z,52.63
2022-12-27T02:28:24.980Z,51.00
2022-12-27T02:30:55.868Z,56.88
2022-12-27T02:33:27.402Z,57.50
2022-12-27T02:36:13.285Z,55.78
2022-12-27T02:41:30.281Z,58.85
2022-12-27T02:44:18.012Z,48.90
2022-12-27T02:47:10.462Z,61.90
2022-12-27T02:50:01.701Z,54.63
2022-12-27T02:53:05.476Z,50.78
2022-12-27T02:56:09.587Z,53.70
2022-12-27T02:58:49.497Z,53.42
2022-12-27T03:01:42.775Z,52.45
2022-12-27T03:04:26.744Z,48.97
2022-12-27T03:07:01.358Z,53.20
2022-12-27T03:09:53.501Z,58.83
2022-12-27T03:12:45.239Z,51.42
2022-12-27T03:15:59.872Z,48.55
2022-12-27T03:18:31.388Z,45.33
2022-12-27T03:21:18.309Z,48.83
2022-12-27T03:24:05.229Z,46.92
2022-12-27T03:26:34.643Z,49.75
2022-12-27T03:29:21.187Z,49.92
2022-12-27T03:32:12.577Z,52.85
2022-12-27T03:34:44.178Z,51.63
2022-12-27T03:37:46.316Z,53.42
2022-12-27T03:40:23.693Z,52.15
2022-12-27T03:43:11.531Z,48.15
2022-12-27T03:46:16.353Z,54.65
2022-12-27T03:49:09.224Z,41.38
2022-12-27T03:54:44.053Z,44.88
2022-12-27T03:57:15.543Z,43.70
2022-12-27T03:59:44.060Z,50.42
2022-12-27T04:02:12.544Z,38.70
2022-12-27T04:04:40.608Z,40.20
2022-12-27T04:07:08.936Z,36.25
2022-12-27T04:09:56.244Z,37.45
2022-12-27T04:12:45.117Z,36.72
2022-12-27T04:15:36.203Z,33.22
2022-12-27T04:18:23.735Z,33.47
2022-12-27T04:21:10.909Z,29.70
2022-12-27T04:23:59.768Z,28.65
2022-12-27T04:26:50.016Z,27.00
2022-12-27T04:29:36.963Z,27.23
2022-12-27T04:32:23.930Z,22.40
2022-12-27T04:34:56.054Z,19.23
2022-12-27T04:37:24.265Z,20.48
2022-12-27T04:40:10.977Z,17.25
2022-12-27T04:42:57.286Z,16.42
2022-12-27T04:48:35.172Z,14.13
2022-12-27T04:51:24.290Z,15.80
2022-12-27T04:54:11.578Z,10.95
2022-12-27T04:56:39.871Z,10.90
2022-12-27T04:59:27.176Z,12.15
2022-12-27T05:02:04.875Z,9.73
2022-12-27T05:04:36.064Z,11.27
2022-12-27T05:07:25.742Z,8.23
2022-12-27T05:10:12.975Z,9.10
2022-12-27T05:13:03.043Z,11.65
2022-12-27T05:15:32.663Z,11.40
2022-12-27T05:18:01.998Z,11.88
2022-12-27T05:20:30.228Z,13.32
2022-12-27T05:23:18.370Z,10.48
2022-12-27T05:25:47.341Z,12.95
2022-12-27T05:28:16.629Z,10.07
2022-12-27T05:30:46.410Z,9.07
2022-12-27T05:33:14.507Z,10.15
2022-12-27T05:35:42.717Z,9.88
2022-12-27T05:38:10.923Z,11.38
2022-12-27T05:40:46.611Z,10.60
2022-12-27T05:43:17.998Z,8.88
2022-12-27T05:45:46.669Z,9.90
2022-12-27T05:48:14.914Z,9.15
2022-12-27T05:50:42.889Z,16.92
2022-12-27T05:53:13.741Z,18.40
2022-12-27T05:55:42.613Z,14.43
2022-12-27T05:58:17.058Z,15.13
2022-12-27T06:00:48.554Z,13.18
2022-12-27T06:03:17.073Z,11.57
2022-12-27T06:05:45.406Z,12.48
2022-12-27T06:08:13.405Z,15.95
2022-12-27T06:10:42.431Z,12.40
2022-12-27T06:13:11.758Z,14.60
2022-12-27T06:15:49.607Z,12.18
2022-12-27T06:18:18.441Z,9.63
2022-12-27T06:20:52.507Z,10.63
2022-12-27T06:23:29.762Z,8.82
2022-12-27T06:26:07.844Z,9.82
2022-12-27T06:28:37.715Z,8.93
2022-12-27T06:31:14.596Z,11.07
2022-12-27T06:33:43.687Z,11.27
2022-12-27T06:36:13.973Z,12.55
2022-12-27T06:38:42.852Z,14.13
2022-12-27T06:41:13.489Z,19.98
2022-12-27T06:43:42.038Z,18.00
2022-12-27T06:46:18.855Z,14.38
2022-12-27T06:48:47.527Z,14.18
2022-12-27T06:51:16.577Z,13.63
2022-12-27T06:53:47.775Z,13.02
2022-12-27T06:56:18.344Z,16.38
2022-12-27T06:58:46.911Z,13.20
2022-12-27T07:01:23.477Z,11.00
2022-12-27T07:03:53.805Z,12.38
2022-12-27T07:06:24.630Z,10.75
2022-12-27T07:08:53.734Z,8.75
2022-12-27T07:11:24.634Z,9.38
2022-12-27T07:13:56.651Z,9.63
2022-12-27T07:16:27.342Z,12.55
2022-12-27T07:18:57.558Z,14.35
2022-12-27T07:21:27.214Z,15.02
2022-12-27T07:23:59.860Z,24.40
2022-12-27T07:26:47.164Z,14.38
2022-12-27T07:29:18.729Z,18.75
2022-12-27T07:31:54.939Z,14.90
2022-12-27T07:34:32.207Z,12.63
2022-12-27T07:37:08.913Z,11.45
2022-12-27T07:39:42.469Z,14.93
2022-12-27T07:42:36.292Z,9.23
2022-12-27T07:45:20.307Z,13.25
2022-12-27T07:47:49.874Z,13.48
2022-12-27T07:54:00.228Z,19.90
2022-12-27T07:59:44.698Z,22.67
2022-12-27T08:02:41.230Z,22.95
2022-12-27T08:05:32.405Z,21.00
2022-12-27T08:08:06.801Z,21.05
2022-12-27T08:10:41.265Z,23.08
2022-12-27T08:13:12.602Z,29.25
2022-12-27T08:15:55.064Z,27.30
2022-12-27T08:18:32.798Z,22.85
2022-12-27T08:21:06.941Z,22.98
2022-12-27T08:23:45.386Z,24.30
2022-12-27T08:26:47.943Z,20.92
2022-12-27T08:29:22.056Z,20.45
2022-12-27T08:31:56.151Z,21.10
2022-12-27T08:34:38.081Z,28.65
2022-12-27T08:37:10.667Z,19.52
2022-12-27T08:39:39.033Z,19.92
2022-12-27T08:42:08.084Z,14.70
2022-12-27T08:44:40.873Z,19.95
2022-12-27T08:47:29.128Z,21.52
2022-12-27T08:50:03.315Z,24.67
2022-12-27T08:52:34.827Z,21.83
2022-12-27T08:55:03.760Z,19.42
2022-12-27T08:57:32.606Z,20.70
2022-12-27T09:00:00.779Z,19.60
2022-12-27T09:02:29.267Z,19.15
2022-12-27T09:05:00.405Z,17.25
2022-12-27T09:07:30.488Z,22.90
2022-12-27T09:10:06.173Z,18.90
2022-12-27T09:12:51.695Z,19.65
2022-12-27T09:15:42.854Z,17.50
2022-12-27T09:18:17.970Z,15.93
2022-12-27T09:20:52.273Z,16.57
2022-12-27T09:23:29.885Z,14.60
2022-12-27T09:26:24.689Z,15.23
2022-12-27T09:29:00.392Z,13.65
2022-12-27T09:31:46.850Z,12.25
2022-12-27T09:34:15.600Z,11.02
2022-12-27T09:36:51.039Z,10.02
2022-12-27T09:39:20.170Z,11.90
2022-12-27T09:42:49.841Z,14.50
2022-12-27T09:45:20.998Z,16.52
2022-12-27T09:48:34.389Z,16.45
2022-12-27T09:51:20.478Z,15.35
2022-12-27T09:54:07.607Z,12.82
2022-12-27T09:57:09.675Z,17.55
2022-12-27T09:59:36.092Z,14.65
2022-12-27T10:02:09.202Z,12.27
2022-12-27T10:05:09.953Z,17.00
2022-12-27T10:07:34.249Z,12.95
2022-12-27T10:10:18.290Z,8.57
2022-12-27T14:12:57.661Z,34.97
2022-12-27T14:15:57.872Z,32.70
2022-12-27T14:18:56.208Z,29.70
2022-12-27T14:21:36.466Z,38.28
2022-12-27T14:24:24.537Z,32.50
2022-12-27T14:27:11.196Z,36.00
2022-12-27T14:30:06.966Z,41.15
2022-12-27T14:32:59.326Z,32.53
2022-12-27T14:36:09.080Z,31.13
2022-12-27T14:38:43.359Z,32.33
2022-12-27T14:41:36.638Z,36.40
2022-12-27T14:44:34.868Z,34.83
2022-12-27T14:47:20.293Z,35.55
2022-12-27T14:50:22.350Z,30.40
2022-12-27T14:53:02.436Z,36.55
2022-12-27T14:55:46.219Z,38.72
2022-12-27T14:58:55.542Z,44.95
2022-12-27T15:01:50.626Z,36.85
2022-12-27T15:04:34.632Z,42.60
2022-12-27T15:07:24.425Z,43.83
2022-12-27T15:10:33.909Z,86.35
2022-12-27T15:13:25.927Z,40.63
2022-12-27T15:15:54.266Z,41.65
2022-12-27T15:19:06.317Z,40.40
2022-12-27T15:21:58.944Z,47.15
2022-12-27T15:24:51.082Z,41.15
2022-12-27T15:27:28.234Z,50.03
2022-12-27T15:30:29.977Z,44.25
2022-12-27T15:39:00.908Z,50.00
2022-12-27T15:41:37.327Z,43.85
2022-12-27T15:44:25.917Z,43.05
2022-12-27T15:47:30.071Z,43.38
2022-12-27T15:50:09.621Z,42.38
2022-12-27T15:53:08.956Z,42.38
2022-12-27T15:55:59.579Z,45.65
2022-12-27T15:58:27.865Z,45.70
2022-12-27T16:01:23.634Z,41.22
2022-12-27T16:03:53.840Z,40.28
2022-12-27T16:06:34.026Z,38.95
2022-12-27T16:09:23.187Z,45.05
2022-12-27T16:12:37.381Z,46.45
2022-12-27T16:15:43.568Z,44.55
2022-12-27T16:18:20.433Z,50.15
2022-12-27T16:21:16.363Z,50.80
2022-12-27T16:23:45.906Z,54.22
2022-12-27T16:26:17.318Z,52.75
2022-12-27T16:29:13.752Z,58.17
2022-12-27T16:31:48.072Z,58.85
2022-12-27T16:34:21.280Z,58.35
2022-12-27T16:36:49.508Z,51.05
2022-12-27T16:39:44.950Z,53.03
2022-12-27T16:42:15.685Z,52.13
2022-12-27T16:45:05.724Z,48.45
2022-12-27T16:47:37.131Z,46.60
2022-12-27T16:50:41.832Z,55.05
2022-12-27T16:53:22.375Z,49.35
2022-12-27T16:56:37.060Z,52.15
2022-12-27T16:59:55.050Z,45.15
2022-12-27T17:02:49.053Z,55.03
2022-12-27T17:05:17.029Z,53.60
2022-12-27T17:08:05.092Z,48.28
2022-12-27T17:10:42.374Z,56.28
2022-12-27T17:13:45.397Z,50.47
2022-12-27T17:16:22.990Z,50.45
2022-12-27T17:19:08.408Z,48.83
2022-12-27T17:21:38.693Z,57.38
2022-12-27T17:24:19.020Z,51.22
2022-12-27T17:27:18.764Z,45.65
2022-12-27T17:30:07.069Z,46.55
2022-12-27T17:33:19.415Z,52.38
2022-12-27T17:36:08.153Z,42.63
2022-12-27T17:39:00.456Z,46.58
2022-12-27T17:42:23.081Z,50.28
2022-12-27T17:45:06.117Z,43.95
2022-12-27T17:48:11.844Z,47.90
2022-12-27T17:54:56.059Z,44.72
2022-12-27T17:57:43.324Z,46.20
2022-12-27T18:00:29.786Z,44.70
2022-12-27T18:02:59.390Z,51.35
2022-12-27T18:05:31.478Z,51.22
2022-12-27T18:08:29.961Z,56.45
2022-12-27T18:10:58.249Z,60.67
2022-12-27T18:13:27.901Z,75.53
2022-12-27T18:15:58.383Z,77.38
2022-12-27T18:18:31.142Z,63.65
2022-12-27T18:21:08.447Z,66.97
2022-12-27T18:23:46.908Z,55.45
2022-12-27T18:26:15.332Z,57.97
2022-12-27T18:28:50.421Z,56.20
2022-12-27T18:31:57.377Z,60.05
2022-12-27T18:37:54.844Z,63.85
2022-12-27T18:40:31.306Z,59.55
2022-12-27T18:43:38.324Z,62.13
2022-12-27T18:46:50.885Z,54.65
2022-12-27T18:49:40.774Z,56.20
2022-12-27T18:52:26.178Z,58.15
2022-12-27T18:54:54.922Z,51.17
2022-12-27T18:57:32.337Z,56.83
2022-12-27T19:00:24.535Z,62.28
2022-12-27T19:03:20.181Z,48.63
2022-12-27T19:06:08.624Z,55.80
2022-12-27T19:08:40.455Z,49.20
2022-12-27T19:11:09.844Z,46.90
2022-12-27T19:13:52.730Z,43.67
2022-12-27T19:16:29.439Z,43.95
2022-12-27T19:19:28.917Z,51.10
2022-12-27T19:21:59.104Z,56.85
2022-12-27T19:24:33.214Z,44.35
2022-12-27T19:27:24.300Z,53.22
2022-12-27T19:29:59.013Z,49.63
2022-12-27T19:32:37.709Z,45.53
2022-12-27T19:35:06.166Z,45.97
2022-12-27T19:37:35.952Z,49.45
2022-12-27T19:40:10.933Z,50.33
2022-12-27T19:42:39.727Z,46.30
2022-12-27T19:48:06.278Z,52.17
2022-12-27T19:50:48.451Z,56.13
2022-12-27T19:53:24.493Z,52.92
2022-12-27T19:55:56.167Z,48.55
2022-12-27T19:58:33.444Z,56.95
2022-12-27T20:01:18.760Z,52.95
2022-12-27T20:03:52.429Z,58.40
2022-12-27T20:06:33.239Z,51.08
2022-12-27T20:09:17.082Z,54.95
2022-12-27T20:11:49.351Z,52.60
2022-12-27T20:14:31.781Z,49.72
2022-12-27T20:17:07.905Z,44.83
2022-12-27T20:19:44.372Z,50.35
2022-12-27T20:22:19.830Z,59.15
2022-12-27T20:24:52.545Z,53.03
2022-12-27T20:27:38.110Z,59.30
2022-12-27T20:30:07.422Z,58.30
2022-12-27T20:32:40.472Z,52.72
2022-12-27T20:35:19.226Z,58.72
2022-12-27T20:37:47.424Z,52.40
2022-12-27T20:40:27.837Z,55.85
2022-12-27T20:42:57.473Z,58.63
2022-12-27T20:45:30.038Z,59.40
2022-12-27T20:47:59.206Z,66.30
2022-12-27T20:50:35.548Z,66.32
2022-12-27T20:53:12.410Z,46.78
2022-12-27T20:55:42.873Z,48.95
2022-12-27T20:58:16.284Z,54.17
2022-12-27T21:00:45.926Z,56.83
2022-12-27T21:03:15.578Z,53.03
2022-12-27T21:06:19.481Z,48.85
2022-12-27T21:08:56.298Z,46.78
2022-12-27T21:11:32.576Z,53.97
2022-12-27T21:14:09.841Z,47.60
2022-12-27T21:16:41.176Z,52.15
2022-12-27T21:19:19.367Z,46.55
2022-12-27T21:21:47.214Z,44.33
2022-12-27T21:24:16.414Z,42.63
2022-12-27T21:26:54.582Z,43.67
2022-12-27T21:29:32.778Z,42.47
2022-12-27T21:32:14.064Z,40.13
2022-12-27T21:34:43.427Z,39.75
2022-12-27T21:37:13.665Z,41.28
2022-12-27T21:39:41.959Z,42.47
2022-12-27T21:42:17.100Z,42.45
2022-12-27T21:44:51.506Z,35.80
2022-12-27T21:47:22.451Z,38.72
2022-12-27T21:49:52.523Z,35.53
2022-12-27T21:52:26.289Z,32.95
2022-12-27T21:55:52.469Z,33.25
2022-12-27T21:59:30.718Z,32.75
2022-12-27T22:02:00.426Z,41.22
2022-12-27T22:04:54.306Z,39.63
2022-12-27T22:08:01.599Z,39.60
2022-12-27T22:13:33.731Z,31.90
2022-12-27T22:16:17.559Z,37.20
2022-12-27T22:18:50.486Z,33.60
2022-12-27T22:22:09.885Z,28.45
2022-12-27T22:25:10.918Z,33.55
2022-12-27T22:30:55.769Z,28.60
2022-12-27T22:33:30.391Z,30.50
2022-12-27T22:36:12.163Z,30.67
2022-12-27T22:38:41.338Z,27.20
2022-12-27T22:41:35.376Z,21.20
2022-12-27T22:44:21.783Z,25.20
2022-12-27T22:49:43.748Z,20.15
2022-12-27T22:52:19.016Z,17.58
2022-12-27T22:55:04.645Z,16.83
2022-12-27T22:57:35.439Z,19.02
2022-12-27T23:00:08.074Z,14.38
2022-12-27T23:02:42.008Z,19.20
2022-12-27T23:05:13.190Z,13.82
2022-12-27T23:08:04.314Z,13.18
2022-12-27T23:10:29.120Z,11.75
2022-12-27T23:12:57.250Z,11.25
2022-12-27T23:15:25.580Z,4.80
2022-12-27T23:17:55.746Z,3.17
2022-12-27T23:20:23.955Z,3.40
2022-12-27T23:22:51.880Z,2.88
2022-12-27T23:25:20.076Z,3.53
2022-12-27T23:27:48.008Z,1.92
2022-12-27T23:30:17.176Z,2.50
2022-12-27T23:32:45.241Z,1.80
2022-12-27T23:35:13.210Z,1.38
2022-12-27T23:37:41.658Z,3.50
2022-12-27T23:40:10.213Z,1.80
2022-12-27T23:42:38.510Z,3.53
2022-12-27T23:45:06.864Z,1.33
2022-12-27T23:47:34.992Z,1.98
2022-12-27T23:50:02.917Z,1.92
2022-12-27T23:52:31.249Z,1.25
2022-12-27T23:54:59.478Z,1.30
2022-12-27T23:57:29.334Z,2.53
2022-12-27T23:59:57.683Z,1.83
